sensor_id;sensor_type;location;lat;lon;timestamp;P1;durP1;ratioP1;P2;durP2;ratioP2
34876;SDS011;21086;44.780;17.194;2023-02-17T00:00:17;48.47;;;32.30;;
34876;SDS011;21086;44.780;17.194;2023-02-17T00:02:44;47.85;;;31.25;;
34876;SDS011;21086;44.780;17.194;2023-02-17T00:05:11;47.97;;;28.98;;
34876;SDS011;21086;44.780;17.194;2023-02-17T00:07:40;48.83;;;33.35;;
34876;SDS011;21086;44.780;17.194;2023-02-17T00:10:07;42.25;;;28.38;;
34876;SDS011;21086;44.780;17.194;2023-02-17T00:12:34;52.50;;;33.63;;
34876;SDS011;21086;44.780;17.194;2023-02-17T00:15:01;46.83;;;33.08;;
34876;SDS011;21086;44.780;17.194;2023-02-17T00:17:29;40.78;;;27.13;;
34876;SDS011;21086;44.780;17.194;2023-02-17T00:19:56;51.70;;;34.15;;
34876;SDS011;21086;44.780;17.194;2023-02-17T00:22:23;46.30;;;29.42;;
34876;SDS011;21086;44.780;17.194;2023-02-17T00:24:50;49.72;;;32.83;;
34876;SDS011;21086;44.780;17.194;2023-02-17T00:27:17;70.55;;;45.85;;
34876;SDS011;21086;44.780;17.194;2023-02-17T00:29:44;62.05;;;39.85;;
34876;SDS011;21086;44.780;17.194;2023-02-17T00:32:11;48.28;;;31.98;;
34876;SDS011;21086;44.780;17.194;2023-02-17T00:34:39;55.47;;;34.92;;
34876;SDS011;21086;44.780;17.194;2023-02-17T00:37:06;61.70;;;39.80;;
34876;SDS011;21086;44.780;17.194;2023-02-17T00:39:32;60.05;;;39.92;;
34876;SDS011;21086;44.780;17.194;2023-02-17T00:41:59;61.17;;;40.83;;
34876;SDS011;21086;44.780;17.194;2023-02-17T00:44:31;64.35;;;42.28;;
34876;SDS011;21086;44.780;17.194;2023-02-17T00:46:58;53.85;;;34.72;;
34876;SDS011;21086;44.780;17.194;2023-02-17T00:49:25;48.35;;;32.22;;
34876;SDS011;21086;44.780;17.194;2023-02-17T00:51:52;49.58;;;32.47;;
34876;SDS011;21086;44.780;17.194;2023-02-17T00:54:19;57.75;;;36.35;;
34876;SDS011;21086;44.780;17.194;2023-02-17T00:56:46;47.25;;;31.10;;
34876;SDS011;21086;44.780;17.194;2023-02-17T00:59:13;51.63;;;33.22;;
34876;SDS011;21086;44.780;17.194;2023-02-17T01:01:40;61.47;;;40.63;;
34876;SDS011;21086;44.780;17.194;2023-02-17T01:04:07;49.38;;;32.47;;
34876;SDS011;21086;44.780;17.194;2023-02-17T01:06:35;55.03;;;37.35;;
34876;SDS011;21086;44.780;17.194;2023-02-17T01:09:05;49.90;;;34.33;;
34876;SDS011;21086;44.780;17.194;2023-02-17T01:11:33;80.53;;;52.00;;
34876;SDS011;21086;44.780;17.194;2023-02-17T01:14:02;74.05;;;50.47;;
34876;SDS011;21086;44.780;17.194;2023-02-17T01:16:43;66.65;;;45.70;;
34876;SDS011;21086;44.780;17.194;2023-02-17T01:19:12;59.83;;;38.85;;
34876;SDS011;21086;44.780;17.194;2023-02-17T01:21:41;52.85;;;36.70;;
34876;SDS011;21086;44.780;17.194;2023-02-17T01:24:10;63.05;;;39.63;;
34876;SDS011;21086;44.780;17.194;2023-02-17T01:26:38;55.40;;;37.63;;
34876;SDS011;21086;44.780;17.194;2023-02-17T01:29:06;51.28;;;32.63;;
34876;SDS011;21086;44.780;17.194;2023-02-17T01:31:33;49.95;;;31.23;;
34876;SDS011;21086;44.780;17.194;2023-02-17T01:34:01;49.00;;;33.50;;
34876;SDS011;21086;44.780;17.194;2023-02-17T01:36:29;44.30;;;31.15;;
34876;SDS011;21086;44.780;17.194;2023-02-17T01:38:56;52.90;;;34.22;;
34876;SDS011;21086;44.780;17.194;2023-02-17T01:41:25;41.17;;;29.30;;
34876;SDS011;21086;44.780;17.194;2023-02-17T01:44:07;47.15;;;33.25;;
34876;SDS011;21086;44.780;17.194;2023-02-17T01:46:37;34.63;;;25.20;;
34876;SDS011;21086;44.780;17.194;2023-02-17T01:49:16;41.05;;;26.90;;
34876;SDS011;21086;44.780;17.194;2023-02-17T01:52:10;36.00;;;25.52;;
34876;SDS011;21086;44.780;17.194;2023-02-17T01:54:49;40.63;;;28.45;;
34876;SDS011;21086;44.780;17.194;2023-02-17T01:57:21;43.28;;;27.00;;
34876;SDS011;21086;44.780;17.194;2023-02-17T01:59:50;33.63;;;21.95;;
34876;SDS011;21086;44.780;17.194;2023-02-17T02:02:17;31.60;;;21.27;;
34876;SDS011;21086;44.780;17.194;2023-02-17T02:04:46;38.65;;;25.85;;
34876;SDS011;21086;44.780;17.194;2023-02-17T02:07:17;31.63;;;23.40;;
34876;SDS011;21086;44.780;17.194;2023-02-17T02:09:49;30.45;;;22.63;;
34876;SDS011;21086;44.780;17.194;2023-02-17T02:12:29;38.10;;;24.88;;
34876;SDS011;21086;44.780;17.194;2023-02-17T02:15:08;36.10;;;23.17;;
34876;SDS011;21086;44.780;17.194;2023-02-17T02:28:32;20.33;;;15.85;;
34876;SDS011;21086;44.780;17.194;2023-02-17T02:34:02;18.35;;;12.00;;
34876;SDS011;21086;44.780;17.194;2023-02-17T02:36:42;15.90;;;11.25;;
34876;SDS011;21086;44.780;17.194;2023-02-17T02:39:15;18.52;;;13.48;;
34876;SDS011;21086;44.780;17.194;2023-02-17T02:41:52;21.33;;;13.95;;
34876;SDS011;21086;44.780;17.194;2023-02-17T02:44:22;19.38;;;12.07;;
34876;SDS011;21086;44.780;17.194;2023-02-17T02:46:59;19.30;;;12.48;;
34876;SDS011;21086;44.780;17.194;2023-02-17T02:49:29;18.63;;;11.73;;
34876;SDS011;21086;44.780;17.194;2023-02-17T02:54:33;17.10;;;11.18;;
34876;SDS011;21086;44.780;17.194;2023-02-17T03:02:57;18.92;;;14.15;;
34876;SDS011;21086;44.780;17.194;2023-02-17T03:05:33;30.10;;;19.27;;
34876;SDS011;21086;44.780;17.194;2023-02-17T03:08:13;24.27;;;15.80;;
34876;SDS011;21086;44.780;17.194;2023-02-17T03:10:46;30.67;;;20.70;;
34876;SDS011;21086;44.780;17.194;2023-02-17T03:13:15;25.50;;;18.42;;
34876;SDS011;21086;44.780;17.194;2023-02-17T03:15:43;31.58;;;21.73;;
34876;SDS011;21086;44.780;17.194;2023-02-17T03:18:11;24.23;;;16.05;;
34876;SDS011;21086;44.780;17.194;2023-02-17T03:20:59;19.20;;;12.75;;
34876;SDS011;21086;44.780;17.194;2023-02-17T03:23:31;17.83;;;11.73;;
34876;SDS011;21086;44.780;17.194;2023-02-17T03:25:58;14.38;;;9.88;;
34876;SDS011;21086;44.780;17.194;2023-02-17T03:28:26;23.85;;;12.27;;
34876;SDS011;21086;44.780;17.194;2023-02-17T03:30:53;23.73;;;10.60;;
34876;SDS011;21086;44.780;17.194;2023-02-17T03:33:20;16.60;;;12.95;;
34876;SDS011;21086;44.780;17.194;2023-02-17T03:35:46;18.33;;;12.13;;
34876;SDS011;21086;44.780;17.194;2023-02-17T03:38:13;17.73;;;13.15;;
34876;SDS011;21086;44.780;17.194;2023-02-17T03:40:40;18.05;;;11.13;;
34876;SDS011;21086;44.780;17.194;2023-02-17T03:43:07;27.48;;;18.60;;
34876;SDS011;21086;44.780;17.194;2023-02-17T03:45:35;23.90;;;14.32;;
34876;SDS011;21086;44.780;17.194;2023-02-17T03:48:03;24.17;;;15.85;;
34876;SDS011;21086;44.780;17.194;2023-02-17T03:50:30;17.33;;;12.48;;
34876;SDS011;21086;44.780;17.194;2023-02-17T03:52:56;21.83;;;15.68;;
34876;SDS011;21086;44.780;17.194;2023-02-17T03:55:24;21.83;;;16.02;;
34876;SDS011;21086;44.780;17.194;2023-02-17T03:57:51;20.75;;;14.07;;
34876;SDS011;21086;44.780;17.194;2023-02-17T04:00:18;25.42;;;16.27;;
34876;SDS011;21086;44.780;17.194;2023-02-17T04:02:45;25.77;;;17.30;;
34876;SDS011;21086;44.780;17.194;2023-02-17T04:05:12;23.90;;;15.82;;
34876;SDS011;21086;44.780;17.194;2023-02-17T04:07:40;24.30;;;16.85;;
34876;SDS011;21086;44.780;17.194;2023-02-17T04:10:07;26.48;;;17.60;;
34876;SDS011;21086;44.780;17.194;2023-02-17T04:12:35;22.08;;;16.13;;
34876;SDS011;21086;44.780;17.194;2023-02-17T04:15:02;23.73;;;15.88;;
34876;SDS011;21086;44.780;17.194;2023-02-17T04:17:29;27.17;;;17.48;;
34876;SDS011;21086;44.780;17.194;2023-02-17T04:19:56;27.55;;;19.48;;
34876;SDS011;21086;44.780;17.194;2023-02-17T04:22:23;21.10;;;14.23;;
34876;SDS011;21086;44.780;17.194;2023-02-17T04:24:50;20.00;;;14.45;;
34876;SDS011;21086;44.780;17.194;2023-02-17T04:27:17;24.50;;;14.63;;
34876;SDS011;21086;44.780;17.194;2023-02-17T04:29:44;25.70;;;16.25;;
34876;SDS011;21086;44.780;17.194;2023-02-17T04:32:11;23.52;;;16.00;;
34876;SDS011;21086;44.780;17.194;2023-02-17T04:34:38;23.75;;;15.98;;
34876;SDS011;21086;44.780;17.194;2023-02-17T04:37:05;22.95;;;14.80;;
34876;SDS011;21086;44.780;17.194;2023-02-17T04:39:32;22.52;;;14.25;;
34876;SDS011;21086;44.780;17.194;2023-02-17T04:41:59;20.67;;;14.35;;
34876;SDS011;21086;44.780;17.194;2023-02-17T04:44:26;24.70;;;15.50;;
34876;SDS011;21086;44.780;17.194;2023-02-17T04:46:53;75.45;;;38.55;;
34876;SDS011;21086;44.780;17.194;2023-02-17T04:49:20;26.70;;;17.17;;
34876;SDS011;21086;44.780;17.194;2023-02-17T04:51:47;20.52;;;13.52;;
34876;SDS011;21086;44.780;17.194;2023-02-17T04:54:15;23.15;;;13.90;;
34876;SDS011;21086;44.780;17.194;2023-02-17T04:56:42;14.73;;;10.13;;
34876;SDS011;21086;44.780;17.194;2023-02-17T04:59:08;13.80;;;9.88;;
34876;SDS011;21086;44.780;17.194;2023-02-17T05:01:35;14.27;;;9.38;;
34876;SDS011;21086;44.780;17.194;2023-02-17T05:04:02;17.92;;;9.52;;
34876;SDS011;21086;44.780;17.194;2023-02-17T05:06:29;11.10;;;8.63;;
34876;SDS011;21086;44.780;17.194;2023-02-17T05:08:56;15.38;;;8.68;;
34876;SDS011;21086;44.780;17.194;2023-02-17T05:11:23;14.93;;;8.40;;
34876;SDS011;21086;44.780;17.194;2023-02-17T05:13:50;21.80;;;13.77;;
34876;SDS011;21086;44.780;17.194;2023-02-17T05:16:17;12.48;;;9.23;;
34876;SDS011;21086;44.780;17.194;2023-02-17T05:18:44;25.58;;;17.48;;
34876;SDS011;21086;44.780;17.194;2023-02-17T05:21:11;27.85;;;17.75;;
34876;SDS011;21086;44.780;17.194;2023-02-17T05:23:38;31.27;;;21.85;;
34876;SDS011;21086;44.780;17.194;2023-02-17T05:26:09;29.90;;;18.38;;
34876;SDS011;21086;44.780;17.194;2023-02-17T05:28:36;25.70;;;18.27;;
34876;SDS011;21086;44.780;17.194;2023-02-17T05:31:04;24.70;;;17.25;;
34876;SDS011;21086;44.780;17.194;2023-02-17T05:33:31;22.20;;;17.27;;
34876;SDS011;21086;44.780;17.194;2023-02-17T05:36:06;22.73;;;16.20;;
34876;SDS011;21086;44.780;17.194;2023-02-17T05:38:36;32.95;;;21.20;;
34876;SDS011;21086;44.780;17.194;2023-02-17T05:41:04;26.35;;;18.70;;
34876;SDS011;21086;44.780;17.194;2023-02-17T05:43:32;36.47;;;24.33;;
34876;SDS011;21086;44.780;17.194;2023-02-17T05:46:00;29.30;;;18.35;;
34876;SDS011;21086;44.780;17.194;2023-02-17T05:48:28;33.63;;;19.17;;
34876;SDS011;21086;44.780;17.194;2023-02-17T05:50:55;22.75;;;16.58;;
34876;SDS011;21086;44.780;17.194;2023-02-17T05:53:22;19.45;;;13.30;;
34876;SDS011;21086;44.780;17.194;2023-02-17T05:55:49;17.33;;;12.60;;
34876;SDS011;21086;44.780;17.194;2023-02-17T05:58:16;27.35;;;16.88;;
34876;SDS011;21086;44.780;17.194;2023-02-17T06:00:43;31.13;;;19.77;;
34876;SDS011;21086;44.780;17.194;2023-02-17T06:03:13;28.55;;;18.45;;
34876;SDS011;21086;44.780;17.194;2023-02-17T06:05:40;35.30;;;21.42;;
34876;SDS011;21086;44.780;17.194;2023-02-17T06:08:07;30.33;;;19.25;;
34876;SDS011;21086;44.780;17.194;2023-02-17T06:10:34;29.48;;;18.38;;
34876;SDS011;21086;44.780;17.194;2023-02-17T06:13:01;36.83;;;23.80;;
34876;SDS011;21086;44.780;17.194;2023-02-17T06:15:27;26.95;;;18.58;;
34876;SDS011;21086;44.780;17.194;2023-02-17T06:17:55;26.00;;;17.65;;
34876;SDS011;21086;44.780;17.194;2023-02-17T06:20:22;22.95;;;15.60;;
34876;SDS011;21086;44.780;17.194;2023-02-17T06:22:50;25.48;;;13.10;;
34876;SDS011;21086;44.780;17.194;2023-02-17T06:25:17;24.23;;;15.32;;
34876;SDS011;21086;44.780;17.194;2023-02-17T06:27:44;16.73;;;11.82;;
34876;SDS011;21086;44.780;17.194;2023-02-17T06:30:11;17.75;;;10.45;;
34876;SDS011;21086;44.780;17.194;2023-02-17T06:32:38;16.48;;;11.75;;
34876;SDS011;21086;44.780;17.194;2023-02-17T06:35:05;24.08;;;13.98;;
34876;SDS011;21086;44.780;17.194;2023-02-17T06:37:32;24.98;;;17.80;;
34876;SDS011;21086;44.780;17.194;2023-02-17T06:39:59;16.13;;;12.27;;
34876;SDS011;21086;44.780;17.194;2023-02-17T06:42:26;18.73;;;13.50;;
34876;SDS011;21086;44.780;17.194;2023-02-17T06:44:53;14.30;;;9.20;;
34876;SDS011;21086;44.780;17.194;2023-02-17T06:47:20;20.50;;;11.00;;
34876;SDS011;21086;44.780;17.194;2023-02-17T06:49:47;17.65;;;9.63;;
34876;SDS011;21086;44.780;17.194;2023-02-17T06:52:14;18.70;;;9.38;;
34876;SDS011;21086;44.780;17.194;2023-02-17T06:54:41;10.85;;;8.20;;
34876;SDS011;21086;44.780;17.194;2023-02-17T06:57:08;16.38;;;8.65;;
34876;SDS011;21086;44.780;17.194;2023-02-17T06:59:36;25.83;;;10.45;;
34876;SDS011;21086;44.780;17.194;2023-02-17T07:02:03;15.77;;;11.02;;
34876;SDS011;21086;44.780;17.194;2023-02-17T07:04:31;21.52;;;10.15;;
34876;SDS011;21086;44.780;17.194;2023-02-17T07:06:58;16.70;;;9.98;;
34876;SDS011;21086;44.780;17.194;2023-02-17T07:09:25;20.98;;;11.73;;
34876;SDS011;21086;44.780;17.194;2023-02-17T07:11:51;21.83;;;11.73;;
34876;SDS011;21086;44.780;17.194;2023-02-17T07:14:19;18.52;;;12.80;;
34876;SDS011;21086;44.780;17.194;2023-02-17T07:16:47;28.17;;;14.85;;
34876;SDS011;21086;44.780;17.194;2023-02-17T07:19:14;16.13;;;11.32;;
34876;SDS011;21086;44.780;17.194;2023-02-17T07:21:42;15.77;;;11.68;;
34876;SDS011;21086;44.780;17.194;2023-02-17T07:24:09;21.95;;;11.75;;
34876;SDS011;21086;44.780;17.194;2023-02-17T07:26:39;15.50;;;11.18;;
34876;SDS011;21086;44.780;17.194;2023-02-17T07:29:06;15.18;;;11.23;;
34876;SDS011;21086;44.780;17.194;2023-02-17T07:31:34;15.98;;;10.90;;
34876;SDS011;21086;44.780;17.194;2023-02-17T07:34:02;15.43;;;12.38;;
34876;SDS011;21086;44.780;17.194;2023-02-17T07:36:30;24.85;;;14.35;;
34876;SDS011;21086;44.780;17.194;2023-02-17T07:38:57;25.67;;;17.35;;
34876;SDS011;21086;44.780;17.194;2023-02-17T07:41:24;25.77;;;15.48;;
34876;SDS011;21086;44.780;17.194;2023-02-17T07:43:54;22.85;;;13.73;;
34876;SDS011;21086;44.780;17.194;2023-02-17T07:46:22;23.73;;;16.25;;
34876;SDS011;21086;44.780;17.194;2023-02-17T07:48:49;16.67;;;12.70;;
34876;SDS011;21086;44.780;17.194;2023-02-17T07:51:18;20.80;;;15.43;;
34876;SDS011;21086;44.780;17.194;2023-02-17T07:53:47;16.13;;;10.32;;
34876;SDS011;21086;44.780;17.194;2023-02-17T07:56:15;19.00;;;13.63;;
34876;SDS011;21086;44.780;17.194;2023-02-17T07:58:44;19.80;;;15.13;;
34876;SDS011;21086;44.780;17.194;2023-02-17T08:01:13;21.65;;;15.68;;
34876;SDS011;21086;44.780;17.194;2023-02-17T08:03:44;17.20;;;13.50;;
34876;SDS011;21086;44.780;17.194;2023-02-17T08:06:13;15.45;;;11.35;;
34876;SDS011;21086;44.780;17.194;2023-02-17T08:08:44;20.13;;;15.18;;
34876;SDS011;21086;44.780;17.194;2023-02-17T08:11:31;24.38;;;13.63;;
34876;SDS011;21086;44.780;17.194;2023-02-17T08:14:19;26.42;;;18.63;;
34876;SDS011;21086;44.780;17.194;2023-02-17T08:16:47;28.25;;;16.73;;
34876;SDS011;21086;44.780;17.194;2023-02-17T08:19:14;17.58;;;10.38;;
34876;SDS011;21086;44.780;17.194;2023-02-17T08:21:41;19.65;;;14.13;;
34876;SDS011;21086;44.780;17.194;2023-02-17T08:24:09;14.15;;;9.60;;
34876;SDS011;21086;44.780;17.194;2023-02-17T08:26:35;13.85;;;10.38;;
34876;SDS011;21086;44.780;17.194;2023-02-17T08:29:03;16.02;;;11.30;;
34876;SDS011;21086;44.780;17.194;2023-02-17T08:31:32;18.90;;;14.13;;
34876;SDS011;21086;44.780;17.194;2023-02-17T08:34:01;17.02;;;11.68;;
34876;SDS011;21086;44.780;17.194;2023-02-17T08:36:30;17.15;;;12.00;;
34876;SDS011;21086;44.780;17.194;2023-02-17T08:38:59;15.77;;;12.10;;
34876;SDS011;21086;44.780;17.194;2023-02-17T08:41:28;19.95;;;11.70;;
34876;SDS011;21086;44.780;17.194;2023-02-17T08:44:01;17.50;;;10.95;;
34876;SDS011;21086;44.780;17.194;2023-02-17T08:46:29;15.30;;;11.65;;
34876;SDS011;21086;44.780;17.194;2023-02-17T08:48:57;15.75;;;11.25;;
34876;SDS011;21086;44.780;17.194;2023-02-17T08:51:24;17.85;;;10.25;;
34876;SDS011;21086;44.780;17.194;2023-02-17T08:53:53;13.77;;;9.05;;
34876;SDS011;21086;44.780;17.194;2023-02-17T08:56:21;14.10;;;10.57;;
34876;SDS011;21086;44.780;17.194;2023-02-17T08:58:49;10.20;;;8.88;;
34876;SDS011;21086;44.780;17.194;2023-02-17T09:01:17;16.75;;;11.25;;
34876;SDS011;21086;44.780;17.194;2023-02-17T09:03:45;14.27;;;11.13;;
34876;SDS011;21086;44.780;17.194;2023-02-17T09:06:13;18.00;;;11.73;;
34876;SDS011;21086;44.780;17.194;2023-02-17T09:08:41;14.73;;;11.27;;
34876;SDS011;21086;44.780;17.194;2023-02-17T09:11:09;18.30;;;12.48;;
34876;SDS011;21086;44.780;17.194;2023-02-17T09:13:37;19.95;;;12.40;;
34876;SDS011;21086;44.780;17.194;2023-02-17T09:16:04;19.30;;;12.90;;
34876;SDS011;21086;44.780;17.194;2023-02-17T09:18:32;18.17;;;13.55;;
34876;SDS011;21086;44.780;17.194;2023-02-17T09:21:03;18.52;;;14.25;;
34876;SDS011;21086;44.780;17.194;2023-02-17T09:23:31;18.15;;;12.98;;
34876;SDS011;21086;44.780;17.194;2023-02-17T09:26:02;19.35;;;13.75;;
34876;SDS011;21086;44.780;17.194;2023-02-17T09:28:31;18.05;;;12.82;;
34876;SDS011;21086;44.780;17.194;2023-02-17T09:31:19;15.70;;;10.85;;
34876;SDS011;21086;44.780;17.194;2023-02-17T09:33:48;15.75;;;11.95;;
34876;SDS011;21086;44.780;17.194;2023-02-17T09:36:17;17.80;;;14.10;;
34876;SDS011;21086;44.780;17.194;2023-02-17T09:38:46;18.23;;;11.90;;
34876;SDS011;21086;44.780;17.194;2023-02-17T09:41:18;16.17;;;10.88;;
34876;SDS011;21086;44.780;17.194;2023-02-17T09:43:50;16.73;;;13.05;;
34876;SDS011;21086;44.780;17.194;2023-02-17T09:46:40;14.60;;;10.07;;
34876;SDS011;21086;44.780;17.194;2023-02-17T09:49:27;16.67;;;11.90;;
34876;SDS011;21086;44.780;17.194;2023-02-17T09:52:04;16.80;;;10.68;;
34876;SDS011;21086;44.780;17.194;2023-02-17T09:55:30;19.65;;;12.30;;
34876;SDS011;21086;44.780;17.194;2023-02-17T09:57:33;19.33;;;11.30;;
34876;SDS011;21086;44.780;17.194;2023-02-17T10:00:09;12.23;;;9.95;;
34876;SDS011;21086;44.780;17.194;2023-02-17T10:05:35;10.23;;;7.68;;
34876;SDS011;21086;44.780;17.194;2023-02-17T10:08:09;9.30;;;6.90;;
34876;SDS011;21086;44.780;17.194;2023-02-17T10:10:47;10.00;;;7.78;;
34876;SDS011;21086;44.780;17.194;2023-02-17T10:13:20;14.30;;;8.35;;
34876;SDS011;21086;44.780;17.194;2023-02-17T10:15:50;11.73;;;7.75;;
34876;SDS011;21086;44.780;17.194;2023-02-17T10:18:25;10.85;;;6.88;;
34876;SDS011;21086;44.780;17.194;2023-02-17T10:23:26;10.75;;;6.25;;
34876;SDS011;21086;44.780;17.194;2023-02-17T10:28:24;6.45;;;4.45;;
34876;SDS011;21086;44.780;17.194;2023-02-17T10:31:18;6.20;;;4.82;;
34876;SDS011;21086;44.780;17.194;2023-02-17T10:34:02;6.13;;;5.25;;
34876;SDS011;21086;44.780;17.194;2023-02-17T10:42:09;8.15;;;5.10;;
34876;SDS011;21086;44.780;17.194;2023-02-17T10:44:49;4.43;;;2.78;;
34876;SDS011;21086;44.780;17.194;2023-02-17T10:47:18;5.47;;;3.85;;
34876;SDS011;21086;44.780;17.194;2023-02-17T10:49:48;9.07;;;6.80;;
34876;SDS011;21086;44.780;17.194;2023-02-17T10:52:29;21.23;;;13.48;;
34876;SDS011;21086;44.780;17.194;2023-02-17T10:58:36;9.32;;;5.72;;
34876;SDS011;21086;44.780;17.194;2023-02-17T11:00:40;7.40;;;5.43;;
34876;SDS011;21086;44.780;17.194;2023-02-17T11:03:21;6.70;;;5.57;;
34876;SDS011;21086;44.780;17.194;2023-02-17T11:05:57;4.18;;;2.90;;
34876;SDS011;21086;44.780;17.194;2023-02-17T11:08:30;3.10;;;2.30;;
34876;SDS011;21086;44.780;17.194;2023-02-17T11:11:25;5.57;;;4.28;;
34876;SDS011;21086;44.780;17.194;2023-02-17T11:17:11;4.60;;;2.03;;
34876;SDS011;21086;44.780;17.194;2023-02-17T11:19:52;2.03;;;1.80;;
34876;SDS011;21086;44.780;17.194;2023-02-17T11:22:39;2.35;;;1.80;;
34876;SDS011;21086;44.780;17.194;2023-02-17T11:25:32;2.35;;;1.83;;
34876;SDS011;21086;44.780;17.194;2023-02-17T11:28:02;2.70;;;2.20;;
34876;SDS011;21086;44.780;17.194;2023-02-17T11:30:38;2.67;;;1.80;;
34876;SDS011;21086;44.780;17.194;2023-02-17T11:33:14;3.83;;;2.47;;
34876;SDS011;21086;44.780;17.194;2023-02-17T11:35:48;3.35;;;1.75;;
34876;SDS011;21086;44.780;17.194;2023-02-17T11:38:21;2.75;;;2.05;;
34876;SDS011;21086;44.780;17.194;2023-02-17T11:41:00;3.38;;;2.10;;
34876;SDS011;21086;44.780;17.194;2023-02-17T11:43:30;6.60;;;2.63;;
34876;SDS011;21086;44.780;17.194;2023-02-17T11:54:22;2.67;;;1.98;;
34876;SDS011;21086;44.780;17.194;2023-02-17T12:02:49;2.35;;;1.60;;
34876;SDS011;21086;44.780;17.194;2023-02-17T12:08:20;2.72;;;1.77;;
34876;SDS011;21086;44.780;17.194;2023-02-17T12:11:10;3.25;;;1.52;;
34876;SDS011;21086;44.780;17.194;2023-02-17T12:16:41;1.50;;;1.20;;
34876;SDS011;21086;44.780;17.194;2023-02-17T12:35:21;2.20;;;1.27;;
34876;SDS011;21086;44.780;17.194;2023-02-17T12:37:52;1.42;;;1.33;;
34876;SDS011;21086;44.780;17.194;2023-02-17T12:40:32;1.95;;;1.55;;
34876;SDS011;21086;44.780;17.194;2023-02-17T12:45:52;2.22;;;1.65;;
34876;SDS011;21086;44.780;17.194;2023-02-17T12:48:27;3.17;;;1.60;;
34876;SDS011;21086;44.780;17.194;2023-02-17T12:51:17;1.60;;;1.42;;
34876;SDS011;21086;44.780;17.194;2023-02-17T12:58:51;2.75;;;2.03;;
34876;SDS011;21086;44.780;17.194;2023-02-17T13:01:19;6.28;;;2.60;;
34876;SDS011;21086;44.780;17.194;2023-02-17T13:03:49;4.70;;;1.90;;
34876;SDS011;21086;44.780;17.194;2023-02-17T13:06:27;3.65;;;3.28;;
34876;SDS011;21086;44.780;17.194;2023-02-17T13:11:42;3.72;;;2.97;;
34876;SDS011;21086;44.780;17.194;2023-02-17T13:16:54;3.90;;;3.05;;
34876;SDS011;21086;44.780;17.194;2023-02-17T13:19:28;4.82;;;2.95;;
34876;SDS011;21086;44.780;17.194;2023-02-17T13:21:57;3.40;;;3.10;;
34876;SDS011;21086;44.780;17.194;2023-02-17T13:24:37;5.55;;;3.28;;
34876;SDS011;21086;44.780;17.194;2023-02-17T13:30:41;4.38;;;3.92;;
34876;SDS011;21086;44.780;17.194;2023-02-17T13:32:58;3.92;;;3.30;;
34876;SDS011;21086;44.780;17.194;2023-02-17T13:35:32;4.28;;;3.55;;
34876;SDS011;21086;44.780;17.194;2023-02-17T13:38:00;4.13;;;3.40;;
34876;SDS011;21086;44.780;17.194;2023-02-17T13:43:15;4.40;;;3.30;;
34876;SDS011;21086;44.780;17.194;2023-02-17T13:45:47;4.18;;;3.20;;
34876;SDS011;21086;44.780;17.194;2023-02-17T13:48:23;4.18;;;3.20;;
34876;SDS011;21086;44.780;17.194;2023-02-17T13:50:56;7.18;;;5.45;;
34876;SDS011;21086;44.780;17.194;2023-02-17T13:53:29;7.28;;;6.13;;
34876;SDS011;21086;44.780;17.194;2023-02-17T13:55:58;8.35;;;7.03;;
34876;SDS011;21086;44.780;17.194;2023-02-17T13:58:32;4.80;;;3.63;;
34876;SDS011;21086;44.780;17.194;2023-02-17T14:01:01;3.97;;;3.53;;
34876;SDS011;21086;44.780;17.194;2023-02-17T14:03:34;3.75;;;3.13;;
34876;SDS011;21086;44.780;17.194;2023-02-17T14:06:11;5.85;;;3.92;;
34876;SDS011;21086;44.780;17.194;2023-02-17T14:08:59;4.93;;;4.40;;
34876;SDS011;21086;44.780;17.194;2023-02-17T14:11:27;4.03;;;3.20;;
34876;SDS011;21086;44.780;17.194;2023-02-17T14:13:58;4.70;;;3.70;;
34876;SDS011;21086;44.780;17.194;2023-02-17T14:16:36;5.05;;;3.63;;
34876;SDS011;21086;44.780;17.194;2023-02-17T14:19:06;5.60;;;4.07;;
34876;SDS011;21086;44.780;17.194;2023-02-17T14:21:36;11.93;;;6.78;;
34876;SDS011;21086;44.780;17.194;2023-02-17T14:24:05;8.43;;;6.32;;
34876;SDS011;21086;44.780;17.194;2023-02-17T14:26:36;5.82;;;3.70;;
34876;SDS011;21086;44.780;17.194;2023-02-17T14:29:14;6.47;;;4.50;;
34876;SDS011;21086;44.780;17.194;2023-02-17T14:31:45;7.85;;;5.60;;
34876;SDS011;21086;44.780;17.194;2023-02-17T14:36:46;6.75;;;6.03;;
34876;SDS011;21086;44.780;17.194;2023-02-17T14:39:13;4.03;;;3.47;;
34876;SDS011;21086;44.780;17.194;2023-02-17T14:41:41;5.15;;;4.63;;
34876;SDS011;21086;44.780;17.194;2023-02-17T14:44:08;4.72;;;4.22;;
34876;SDS011;21086;44.780;17.194;2023-02-17T14:46:35;6.00;;;4.55;;
34876;SDS011;21086;44.780;17.194;2023-02-17T14:49:02;7.00;;;5.10;;
34876;SDS011;21086;44.780;17.194;2023-02-17T14:51:33;5.05;;;4.20;;
34876;SDS011;21086;44.780;17.194;2023-02-17T14:54:02;5.68;;;4.32;;
34876;SDS011;21086;44.780;17.194;2023-02-17T14:56:45;4.65;;;4.05;;
34876;SDS011;21086;44.780;17.194;2023-02-17T14:59:19;5.80;;;4.30;;
34876;SDS011;21086;44.780;17.194;2023-02-17T15:01:46;6.10;;;5.05;;
34876;SDS011;21086;44.780;17.194;2023-02-17T15:04:13;12.00;;;5.53;;
34876;SDS011;21086;44.780;17.194;2023-02-17T15:06:41;6.50;;;5.10;;
34876;SDS011;21086;44.780;17.194;2023-02-17T15:09:17;6.20;;;4.60;;
34876;SDS011;21086;44.780;17.194;2023-02-17T15:11:46;6.85;;;4.63;;
34876;SDS011;21086;44.780;17.194;2023-02-17T15:14:16;5.40;;;4.72;;
34876;SDS011;21086;44.780;17.194;2023-02-17T15:16:44;9.32;;;8.18;;
34876;SDS011;21086;44.780;17.194;2023-02-17T15:19:14;13.65;;;11.48;;
34876;SDS011;21086;44.780;17.194;2023-02-17T15:21:47;9.50;;;7.97;;
34876;SDS011;21086;44.780;17.194;2023-02-17T15:24:18;7.90;;;6.68;;
34876;SDS011;21086;44.780;17.194;2023-02-17T15:26:53;10.02;;;6.18;;
34876;SDS011;21086;44.780;17.194;2023-02-17T15:29:23;13.82;;;6.15;;
34876;SDS011;21086;44.780;17.194;2023-02-17T15:31:53;5.60;;;4.50;;
34876;SDS011;21086;44.780;17.194;2023-02-17T15:34:24;7.03;;;4.80;;
34876;SDS011;21086;44.780;17.194;2023-02-17T15:36:56;10.70;;;5.82;;
34876;SDS011;21086;44.780;17.194;2023-02-17T15:39:24;14.68;;;11.48;;
34876;SDS011;21086;44.780;17.194;2023-02-17T15:41:52;12.93;;;8.40;;
34876;SDS011;21086;44.780;17.194;2023-02-17T15:44:23;8.05;;;7.00;;
34876;SDS011;21086;44.780;17.194;2023-02-17T15:46:52;6.57;;;5.72;;
34876;SDS011;21086;44.780;17.194;2023-02-17T15:49:21;7.07;;;6.25;;
34876;SDS011;21086;44.780;17.194;2023-02-17T15:51:50;6.05;;;5.20;;
34876;SDS011;21086;44.780;17.194;2023-02-17T15:54:18;6.63;;;4.32;;
34876;SDS011;21086;44.780;17.194;2023-02-17T15:56:49;5.30;;;4.55;;
34876;SDS011;21086;44.780;17.194;2023-02-17T15:59:21;5.68;;;5.05;;
34876;SDS011;21086;44.780;17.194;2023-02-17T16:01:51;12.82;;;9.73;;
34876;SDS011;21086;44.780;17.194;2023-02-17T16:04:27;6.78;;;5.03;;
34876;SDS011;21086;44.780;17.194;2023-02-17T16:06:55;7.30;;;5.28;;
34876;SDS011;21086;44.780;17.194;2023-02-17T16:09:22;7.60;;;5.30;;
34876;SDS011;21086;44.780;17.194;2023-02-17T16:11:50;7.30;;;5.30;;
34876;SDS011;21086;44.780;17.194;2023-02-17T16:14:27;10.18;;;6.00;;